Time;durP1;ratioP1;P1;durP2;ratioP2;P2;SDS_P1;SDS_P2;PMS_P1;PMS_P2;Temp;Humidity;BMP_temperature;BMP_pressure;BME280_temperature;BME280_humidity;BME280_pressure;Samples;Min_cycle;Max_cycle;Signal;HPM_P1;HPM_P2
2021/12/10 00:01:43;;;;;;;21.67;13.32;;;;;;;-3.50;87.43;94893.66;10280385;28;98889;-66
2021/12/10 00:06:52;;;;;;;22.33;12.45;;;;;;;-3.42;87.30;94877.88;10284845;28;96966;-66
2021/12/10 00:11:58;;;;;;;19.40;10.63;;;;;;;-3.43;88.32;94868.56;10284638;28;98884;-66
2021/12/10 00:17:01;;;;;;;;;;;;;;;-3.45;88.68;94848.25;10289519;28;100667;-66
2021/12/10 00:22:10;;;;;;;19.20;10.45;;;;;;;-3.54;87.93;94831.78;10293050;28;97884;-66
2021/12/10 00:27:13;;;;;;;18.98;11.57;;;;;;;-3.57;88.22;94803.06;10287928;28;98605;-66
2021/12/10 00:32:29;;;;;;;17.17;9.77;;;;;;;-3.60;88.62;94788.78;10284116;28;98593;-66
2021/12/10 00:37:34;;;;;;;15.60;7.82;;;;;;;-3.47;88.27;94795.66;10292243;28;97111;-66
2021/12/10 00:42:38;;;;;;;14.65;6.50;;;;;;;-3.32;87.87;94791.28;10284767;28;98660;-66
2021/12/10 00:47:41;;;;;;;14.68;7.88;;;;;;;-3.17;88.15;94772.41;10288010;28;98985;-66
2021/12/10 00:52:48;;;;;;;13.05;7.55;;;;;;;-3.10;88.38;94755.75;10291822;28;96813;-66
2021/12/10 00:57:51;;;;;;;13.40;7.57;;;;;;;-2.98;88.55;94749.03;10288790;28;98927;-66
2021/12/10 01:02:55;;;;;;;11.40;7.15;;;;;;;-2.91;87.88;94713.66;10293891;28;97204;-66
2021/12/10 01:07:59;;;;;;;15.18;6.97;;;;;;;-2.83;88.39;94698.63;10298439;28;98071;-67
2021/12/10 01:13:07;;;;;;;14.25;7.70;;;;;;;-2.73;88.24;94689.41;10288675;28;99023;-66
2021/12/10 01:23:54;;;;;;;13.10;6.90;;;;;;;-2.75;88.35;94658.00;10287248;28;98656;-66
2021/12/10 01:28:58;;;;;;;12.68;7.20;;;;;;;-2.68;88.48;94638.78;10284759;28;96901;-67
2021/12/10 01:34:02;;;;;;;12.65;6.60;;;;;;;-2.67;89.44;94614.84;10291058;28;97171;-66
2021/12/10 01:39:09;;;;;;;15.23;8.02;;;;;;;-2.56;89.11;94610.72;10290799;28;98650;-66
2021/12/10 01:44:16;;;;;;;13.10;7.68;;;;;;;-2.51;88.67;94590.75;10284833;28;98723;-66
2021/12/10 01:49:19;;;;;;;15.40;7.78;;;;;;;-2.46;89.32;94586.13;10290270;28;98983;-66
2021/12/10 01:54:28;;;;;;;13.57;7.18;;;;;;;-2.43;89.40;94570.59;10291732;28;96985;-66
2021/12/10 01:59:34;;;;;;;12.57;7.45;;;;;;;-2.33;89.31;94569.00;10294197;28;97039;-65
2021/12/10 02:04:40;;;;;;;12.23;7.45;;;;;;;-2.26;89.18;94574.50;10287846;28;98731;-66
2021/12/10 02:09:44;;;;;;;16.75;7.90;;;;;;;-2.21;89.31;94567.31;10291892;28;97013;-66
2021/12/10 02:14:56;;;;;;;12.60;7.70;;;;;;;-2.14;88.98;94572.75;10295397;28;96727;-66
2021/12/10 02:20:06;;;;;;;16.50;7.88;;;;;;;-2.12;88.89;94579.41;10278104;28;97200;-67
2021/12/10 02:25:12;;;;;;;11.15;6.88;;;;;;;-2.01;89.17;94555.59;10295722;28;96864;-66
2021/12/10 02:30:17;;;;;;;12.18;7.22;;;;;;;-2.02;89.33;94553.97;10292028;28;97274;-66
2021/12/10 02:35:21;;;;;;;11.18;7.57;;;;;;;-2.10;89.21;94559.66;10289979;28;98484;-66
2021/12/10 02:40:27;;;;;;;17.05;9.45;;;;;;;-2.05;88.97;94559.31;10290857;28;97404;-65
2021/12/10 02:45:31;;;;;;;12.57;8.23;;;;;;;-2.11;88.96;94560.56;10284740;28;98615;-66
2021/12/10 02:50:36;;;;;;;15.40;8.85;;;;;;;-1.99;89.58;94537.56;10289588;28;98643;-66
2021/12/10 02:55:40;;;;;;;14.63;8.30;;;;;;;-1.91;89.45;94530.16;10285182;28;100564;-66
2021/12/10 03:00:47;;;;;;;11.77;7.78;;;;;;;-1.92;89.24;94521.63;10290284;28;98836;-66
2021/12/10 03:05:51;;;;;;;11.07;7.20;;;;;;;-1.90;89.29;94512.13;10285031;28;98234;-66
2021/12/10 03:10:55;;;;;;;10.93;6.85;;;;;;;-1.92;89.28;94510.59;10284332;28;100881;-66
2021/12/10 03:15:58;;;;;;;11.05;7.15;;;;;;;-1.88;89.54;94512.81;10284922;28;98692;-66
2021/12/10 03:21:02;;;;;;;9.13;5.90;;;;;;;-1.85;89.38;94497.25;10285482;28;99304;-66
2021/12/10 03:26:06;;;;;;;9.18;5.90;;;;;;;-1.85;88.96;94489.56;10285651;28;97891;-66
2021/12/10 03:31:10;;;;;;;9.50;5.70;;;;;;;-1.78;89.29;94473.72;10284999;28;97707;-66
2021/12/10 03:36:15;;;;;;;10.10;6.10;;;;;;;-1.69;89.08;94468.72;10283930;28;98215;-66
2021/12/10 03:41:20;;;;;;;10.48;6.35;;;;;;;-1.67;88.45;94454.06;10286110;28;100137;-67
2021/12/10 03:46:24;;;;;;;11.50;6.53;;;;;;;-1.65;88.53;94456.50;10289441;28;97787;-67
2021/12/10 03:51:28;;;;;;;9.93;6.38;;;;;;;-1.61;88.79;94457.88;10291208;28;97068;-66
2021/12/10 03:56:34;;;;;;;8.82;5.82;;;;;;;-1.58;88.41;94439.75;10288590;28;98427;-66
2021/12/10 04:01:42;;;;;;;8.63;6.28;;;;;;;-1.65;88.94;94430.91;10295756;28;97470;-66
2021/12/10 04:06:45;;;;;;;9.73;6.47;;;;;;;-1.71;88.98;94413.44;10296092;28;97689;-66
2021/12/10 04:11:51;;;;;;;9.02;6.13;;;;;;;-1.76;89.08;94400.19;10289139;28;99003;-67
2021/12/10 04:16:56;;;;;;;11.82;7.78;;;;;;;-1.81;89.50;94390.31;10288646;28;98462;-66
2021/12/10 04:22:00;;;;;;;;;;;;;;;-1.80;89.38;94371.44;10290320;28;97861;-67
2021/12/10 04:27:07;;;;;;;12.07;7.28;;;;;;;-1.74;89.08;94342.81;10288808;28;98590;-66
2021/12/10 04:32:13;;;;;;;10.05;6.32;;;;;;;-1.76;89.72;94338.75;10287324;28;98106;-66
2021/12/10 04:37:16;;;;;;;12.85;5.97;;;;;;;-1.81;89.59;94330.59;10287575;28;98227;-66
2021/12/10 04:42:23;;;;;;;9.63;5.43;;;;;;;-1.82;89.65;94323.88;10294616;28;100021;-66
2021/12/10 04:47:28;;;;;;;8.27;4.88;;;;;;;-1.82;90.04;94314.44;10285540;28;99025;-66
2021/12/10 04:52:31;;;;;;;8.17;4.77;;;;;;;-1.83;89.66;94317.94;10284567;28;98638;-66
2021/12/10 04:57:35;;;;;;;5.75;3.92;;;;;;;-1.92;89.79;94288.75;10284626;28;97936;-65
2021/12/10 05:02:38;;;;;;;6.57;4.10;;;;;;;-1.89;90.08;94282.59;10288114;28;98829;-66
2021/12/10 05:07:42;;;;;;;5.57;3.42;;;;;;;-1.84;89.59;94271.06;10284317;28;99004;-65
2021/12/10 05:12:49;;;;;;;5.45;3.20;;;;;;;-1.86;89.66;94260.13;10285935;28;99066;-65
2021/12/10 05:17:53;;;;;;;3.90;2.72;;;;;;;-1.87;89.57;94250.00;10284837;28;97597;-66
2021/12/10 05:22:57;;;;;;;3.88;2.45;;;;;;;-1.85;89.64;94243.84;10287944;28;98299;-66
2021/12/10 05:28:01;;;;;;;4.63;2.55;;;;;;;-1.83;90.05;94236.03;10289730;28;98730;-66
2021/12/10 05:33:05;;;;;;;4.53;2.20;;;;;;;-1.83;90.25;94236.03;10286772;28;98383;-66
2021/12/10 05:38:09;;;;;;;3.45;2.05;;;;;;;-1.78;90.15;94233.09;10282744;28;98507;-66
2021/12/10 05:43:13;;;;;;;3.47;1.90;;;;;;;-1.76;89.88;94226.13;10280701;28;98516;-65
2021/12/10 05:48:19;;;;;;;2.05;1.17;;;;;;;-1.81;90.49;94230.78;10292979;28;102394;-66
2021/12/10 05:53:22;;;;;;;1.65;1.13;;;;;;;-1.84;90.14;94224.19;10285611;28;97876;-65
2021/12/10 05:58:27;;;;;;;1.52;1.02;;;;;;;-1.82;90.23;94218.94;10287559;28;97817;-66
2021/12/10 06:03:30;;;;;;;1.33;0.90;;;;;;;-1.88;90.27;94210.81;10285127;28;98574;-65
2021/12/10 06:08:33;;;;;;;1.52;1.02;;;;;;;-1.89;90.66;94200.69;10291217;28;98540;-65
2021/12/10 06:13:38;;;;;;;1.92;1.05;;;;;;;-1.91;90.45;94202.56;10289327;28;98274;-65
2021/12/10 06:18:41;;;;;;;1.07;0.97;;;;;;;-1.94;90.41;94201.06;10290807;28;96999;-65
2021/12/10 06:23:45;;;;;;;1.52;1.02;;;;;;;-1.92;90.46;94196.63;10291325;28;96993;-65
2021/12/10 06:28:49;;;;;;;1.60;0.82;;;;;;;-1.89;90.33;94200.69;10290178;28;96778;-65
2021/12/10 06:33:53;;;;;;;1.08;0.70;;;;;;;-1.89;90.56;94193.81;10297345;28;98891;-64
2021/12/10 06:38:56;;;;;;;0.88;0.75;;;;;;;-1.92;90.46;94194.06;10280356;28;98554;-66
2021/12/10 06:44:04;;;;;;;1.15;0.70;;;;;;;-1.89;90.94;94195.59;10280485;28;97633;-65
2021/12/10 06:49:07;;;;;;;1.08;0.60;;;;;;;-1.89;90.97;94191.25;10283588;28;99612;-65
2021/12/10 06:54:10;;;;;;;0.43;0.43;;;;;;;-1.93;90.98;94192.47;10285067;28;99048;-64
2021/12/10 06:59:14;;;;;;;0.85;0.60;;;;;;;-1.94;91.07;94192.56;10283273;28;98933;-65
2021/12/10 07:04:17;;;;;;;0.90;0.60;;;;;;;-1.93;91.27;94200.13;10285031;28;99341;-65
2021/12/10 07:09:23;;;;;;;0.50;0.50;;;;;;;-1.91;91.28;94200.00;10283788;28;99215;-65
2021/12/10 07:14:27;;;;;;;0.90;0.80;;;;;;;-1.90;90.84;94211.84;10282219;28;100165;-65
2021/12/10 07:19:30;;;;;;;1.10;0.80;;;;;;;-1.82;90.84;94217.19;10287373;28;98097;-64
2021/12/10 07:24:33;;;;;;;0.65;0.50;;;;;;;-1.82;90.71;94218.94;10285086;28;98035;-64
2021/12/10 07:29:37;;;;;;;0.30;0.30;;;;;;;-1.80;90.85;94220.44;10287385;28;98574;-65
2021/12/10 07:34:40;;;;;;;0.35;0.35;;;;;;;-1.73;91.20;94225.88;10286532;28;101055;-65
2021/12/10 07:39:43;;;;;;;0.95;0.40;;;;;;;-1.74;91.07;94219.13;10285203;28;97035;-66
2021/12/10 07:44:47;;;;;;;0.52;0.43;;;;;;;-1.71;90.91;94234.25;10286756;28;96885;-66
2021/12/10 07:49:50;;;;;;;0.75;0.52;;;;;;;-1.64;91.34;94220.00;10295026;28;98645;-66
2021/12/10 07:54:53;;;;;;;0.65;0.60;;;;;;;-1.58;90.98;94224.66;10303093;28;97876;-66
2021/12/10 07:59:58;;;;;;;0.40;0.40;;;;;;;-1.56;91.35;94230.44;10290273;28;96911;-66
2021/12/10 08:05:01;;;;;;;1.48;0.52;;;;;;;-1.51;91.24;94230.91;10313245;28;97366;-65
2021/12/10 08:10:05;;;;;;;0.77;0.60;;;;;;;-1.52;91.09;94226.72;10305075;28;96945;-66
2021/12/10 08:15:11;;;;;;;0.60;0.50;;;;;;;-1.41;91.37;94230.16;10301753;28;96748;-65
2021/12/10 08:20:18;;;;;;;0.52;0.52;;;;;;;-1.38;90.93;94245.28;10286987;28;98560;-66
2021/12/10 08:25:24;;;;;;;0.75;0.60;;;;;;;-1.33;91.01;94248.28;10300990;28;97107;-66
2021/12/10 08:30:31;;;;;;;1.25;0.80;;;;;;;-1.29;91.03;94254.78;10290313;28;97504;-66
2021/12/10 08:35:33;;;;;;;0.98;0.60;;;;;;;-1.31;91.47;94254.06;10312894;28;96873;-67
2021/12/10 08:40:42;;;;;;;1.58;0.60;;;;;;;-1.27;91.28;94270.84;10305155;28;101180;-67
2021/12/10 08:45:46;;;;;;;1.10;0.70;;;;;;;-1.23;91.51;94277.34;10305862;28;97657;-67
2021/12/10 08:50:50;;;;;;;1.55;0.90;;;;;;;-1.20;91.60;94274.53;10294524;28;97301;-68
2021/12/10 08:55:56;;;;;;;0.63;0.60;;;;;;;-1.16;91.53;94275.88;10296983;28;98664;-67
2021/12/10 09:01:04;;;;;;;3.13;1.20;;;;;;;-1.15;91.34;94286.97;10296963;28;96998;-67
2021/12/10 09:06:26;;;;;;;0.55;0.55;;;;;;;-1.21;91.40;94287.47;10298305;28;96911;-68
2021/12/10 09:11:29;;;;;;;1.30;0.90;;;;;;;-1.24;91.56;94288.50;10308704;28;97001;-67
2021/12/10 09:16:55;;;;;;;1.48;0.90;;;;;;;-1.25;91.65;94297.13;10303660;28;99117;-67
2021/12/10 09:21:59;;;;;;;1.48;1.10;;;;;;;-1.25;91.99;94298.91;10322032;28;103961;-67
2021/12/10 09:27:02;;;;;;;1.90;1.00;;;;;;;-1.34;91.96;94297.88;10303060;28;101239;-68
2021/12/10 09:32:10;;;;;;;0.82;0.65;;;;;;;-1.37;92.59;94304.06;10296379;28;96799;-67
2021/12/10 09:37:14;;;;;;;1.45;0.57;;;;;;;-1.30;92.85;94314.63;10296551;28;98239;-68
2021/12/10 09:42:20;;;;;;;0.57;0.55;;;;;;;-1.28;92.94;94307.63;10293614;28;98578;-68
2021/12/10 09:47:24;;;;;;;1.17;0.85;;;;;;;-1.22;92.87;94290.94;10311213;28;96923;-68
2021/12/10 09:52:28;;;;;;;0.67;0.60;;;;;;;-1.18;93.03;94293.16;10312485;28;96904;-67
2021/12/10 09:57:33;;;;;;;1.67;1.00;;;;;;;-1.16;93.08;94291.25;10304855;28;97198;-67
2021/12/10 10:02:55;;;;;;;1.70;0.85;;;;;;;-1.09;93.65;94301.84;10290486;28;97011;-67
2021/12/10 10:08:03;;;;;;;1.17;0.70;;;;;;;-1.06;93.55;94308.47;10307940;28;96936;-67
2021/12/10 10:13:08;;;;;;;0.52;0.50;;;;;;;-1.12;93.77;94313.16;10296590;28;101142;-67
2021/12/10 10:18:14;;;;;;;0.55;0.43;;;;;;;-1.18;93.59;94313.63;10292623;28;97771;-67
2021/12/10 10:23:18;;;;;;;0.30;0.30;;;;;;;-1.16;93.71;94309.19;10292582;28;97842;-67
2021/12/10 10:28:22;;;;;;;0.73;0.57;;;;;;;-1.17;93.94;94299.91;10304446;28;96939;-66
2021/12/10 10:33:27;;;;;;;1.45;0.40;;;;;;;-1.13;94.24;94306.41;10304190;28;96712;-67
2021/12/10 10:38:30;;;;;;;0.57;0.30;;;;;;;-1.12;94.63;94294.38;10304303;28;99578;-67
2021/12/10 10:43:33;;;;;;;0.20;0.20;;;;;;;-1.11;94.32;94303.72;10292448;28;96918;-66
2021/12/10 10:48:37;;;;;;;0.60;0.60;;;;;;;-1.13;94.65;94305.59;10304323;28;96925;-67
2021/12/10 10:53:44;;;;;;;1.05;0.77;;;;;;;-1.08;94.79;94324.78;10293823;28;97903;-66
2021/12/10 10:58:55;;;;;;;1.15;0.90;;;;;;;-1.16;94.93;94316.88;10297748;28;97631;-67
2021/12/10 11:04:03;;;;;;;0.95;0.68;;;;;;;-1.09;94.81;94337.72;10306188;28;97007;-67
2021/12/10 11:09:11;;;;;;;1.48;0.80;;;;;;;-0.99;94.76;94327.53;10304387;28;96859;-66
2021/12/10 11:14:20;;;;;;;1.92;1.20;;;;;;;-0.97;94.77;94331.59;10300481;28;97771;-66
2021/12/10 11:19:29;;;;;;;1.40;1.00;;;;;;;-0.85;94.53;94329.78;10324132;28;96981;-66
2021/12/10 11:24:37;;;;;;;0.60;0.52;;;;;;;-0.81;94.81;94346.53;10315287;28;96910;-66
2021/12/10 11:29:47;;;;;;;1.48;0.73;;;;;;;-0.66;94.95;94333.41;10307987;28;96950;-67
2021/12/10 11:34:55;;;;;;;1.73;0.90;;;;;;;-0.62;94.48;94343.28;10302305;28;96863;-67
2021/12/10 11:39:58;;;;;;;1.30;1.00;;;;;;;-0.63;94.76;94328.84;10303707;28;96900;-66
2021/12/10 11:45:28;;;;;;;1.33;1.00;;;;;;;-0.65;94.17;94340.16;10290006;28;96909;-66
2021/12/10 11:50:35;;;;;;;0.60;0.55;;;;;;;-0.60;94.76;94315.75;10302133;28;97148;-66
2021/12/10 11:55:54;;;;;;;1.23;0.60;;;;;;;-0.41;94.91;94332.19;10286507;28;97663;-67
2021/12/10 12:00:57;;;;;;;1.13;0.60;;;;;;;-0.30;95.25;94313.31;10284917;28;97800;-65
2021/12/10 12:06:07;;;;;;;3.08;1.50;;;;;;;-0.36;94.89;94302.63;10283768;28;97385;-66
2021/12/10 12:11:11;;;;;;;1.40;1.00;;;;;;;-0.31;94.50;94332.22;10295363;28;96999;-66
2021/12/10 12:16:30;;;;;;;1.00;0.60;;;;;;;-0.25;94.41;94357.34;10291341;28;98612;-64
2021/12/10 12:22:28;;;;;;;0.95;0.70;;;;;;;-0.18;94.98;94345.63;10289657;28;96894;-65
2021/12/10 12:27:13;;;;;;;2.45;1.33;;;;;;;-0.14;94.43;94399.16;10294986;28;97067;-66
2021/12/10 12:32:43;;;;;;;1.88;1.00;;;;;;;-0.18;95.12;94322.53;10299167;28;96872;-65
2021/12/10 12:37:47;;;;;;;2.15;0.80;;;;;;;0.04;94.85;94358.28;10291474;28;96836;-66
2021/12/10 12:43:10;;;;;;;0.30;0.30;;;;;;;-0.21;95.22;94374.16;10301876;28;96805;-66
2021/12/10 12:48:37;;;;;;;0.43;0.35;;;;;;;0.23;95.51;94402.94;10302807;28;96878;-66
2021/12/10 12:53:42;;;;;;;1.05;0.50;;;;;;;0.27;94.98;94412.00;10307238;28;97058;-66
2021/12/10 12:58:48;;;;;;;1.35;0.85;;;;;;;0.51;94.70;94349.22;10307488;28;96803;-65
2021/12/10 13:03:55;;;;;;;4.53;1.60;;;;;;;0.82;93.89;94475.88;10306410;28;98592;-66
2021/12/10 13:09:25;;;;;;;3.88;1.13;;;;;;;0.91;93.41;94381.72;10304279;28;98851;-66
2021/12/10 13:14:37;;;;;;;7.18;1.85;;;;;;;1.12;94.16;94387.56;10288075;28;96841;-65
2021/12/10 13:19:40;;;;;;;3.00;1.02;;;;;;;1.11;93.59;94383.34;10301742;28;97795;-65
2021/12/10 13:24:47;;;;;;;3.33;0.93;;;;;;;1.18;92.79;94406.78;10304361;28;98665;-66
2021/12/10 13:29:50;;;;;;;5.75;1.45;;;;;;;1.45;89.37;94429.25;10295674;28;99053;-66
2021/12/10 13:34:53;;;;;;;5.40;1.67;;;;;;;1.72;90.91;94428.53;10305840;28;96829;-66
2021/12/10 13:40:00;;;;;;;3.63;1.40;;;;;;;1.37;91.53;94370.75;10293307;28;97198;-66
2021/12/10 13:45:03;;;;;;;4.65;1.13;;;;;;;1.67;90.53;94429.88;10308975;28;96894;-63
2021/12/10 13:50:09;;;;;;;7.22;1.10;;;;;;;1.62;89.29;94421.78;10296014;28;101014;-66
2021/12/10 13:55:20;;;;;;;2.65;0.70;;;;;;;1.52;90.45;94445.75;10292936;28;96880;-66
2021/12/10 14:00:23;;;;;;;6.43;1.88;;;;;;;1.55;89.65;94435.16;10301209;28;96901;-65
2021/12/10 14:05:29;;;;;;;3.70;1.48;;;;;;;1.73;86.04;94439.66;10300591;28;96989;-66
2021/12/10 14:10:36;;;;;;;4.15;1.25;;;;;;;1.64;88.60;94463.63;10306148;28;96798;-65
2021/12/10 14:15:46;;;;;;;5.38;1.23;;;;;;;1.85;86.91;94433.38;10306660;28;98014;-65
2021/12/10 14:21:11;;;;;;;4.82;1.05;;;;;;;1.77;88.97;94473.66;10298334;28;96953;-65
2021/12/10 14:26:36;;;;;;;5.67;1.73;;;;;;;1.72;89.75;94453.47;10300115;28;97649;-66
2021/12/10 14:31:58;;;;;;;6.22;2.58;;;;;;;1.46;90.29;94474.59;10292332;28;96816;-64
2021/12/10 14:37:07;;;;;;;5.15;1.90;;;;;;;0.94;90.71;94490.25;10299588;28;96951;-65
2021/12/10 14:42:31;;;;;;;7.82;1.70;;;;;;;1.01;92.05;94485.38;10316073;28;96970;-65
2021/12/10 14:47:34;;;;;;;5.80;1.80;;;;;;;1.13;91.17;94474.03;10295800;28;97121;-64
2021/12/10 14:52:57;;;;;;;6.35;2.20;;;;;;;1.15;91.11;94497.84;10301396;28;96985;-65
2021/12/10 14:58:22;;;;;;;10.38;3.17;;;;;;;1.18;90.65;94518.19;10294164;28;98308;-65
2021/12/10 15:03:47;;;;;;;2.58;0.80;;;;;;;1.07;90.88;94507.19;10291790;28;98561;-64
2021/12/10 15:09:10;;;;;;;6.33;1.60;;;;;;;0.99;91.43;94531.00;10294887;28;100905;-65
2021/12/10 15:14:37;;;;;;;4.22;1.50;;;;;;;1.01;91.90;94539.38;10285424;28;97038;-64
2021/12/10 15:19:48;;;;;;;6.22;1.02;;;;;;;1.08;92.09;94537.09;10288890;28;97342;-64
2021/12/10 15:24:55;;;;;;;4.70;1.23;;;;;;;1.05;91.84;94512.47;10295956;28;97249;-64
2021/12/10 15:30:04;;;;;;;2.30;0.98;;;;;;;1.05;91.04;94511.66;10288028;28;97330;-65
2021/12/10 15:35:13;;;;;;;4.28;1.08;;;;;;;0.85;91.38;94541.66;10297993;28;96682;-65
2021/12/10 15:40:22;;;;;;;3.60;1.10;;;;;;;1.10;91.78;94564.31;10299580;28;96892;-65
2021/12/10 15:45:29;;;;;;;1.13;0.80;;;;;;;1.10;90.82;94612.38;10300579;28;99317;-65
2021/12/10 15:50:37;;;;;;;3.28;0.93;;;;;;;1.02;90.61;94641.31;10309086;28;97242;-64
2021/12/10 15:55:47;;;;;;;4.55;1.45;;;;;;;0.60;90.83;94637.03;10313622;28;97145;-64
2021/12/10 16:00:53;;;;;;;3.65;1.52;;;;;;;0.74;91.56;94646.19;10293921;28;96892;-64
2021/12/10 16:06:00;;;;;;;3.75;1.40;;;;;;;0.80;91.01;94648.22;10301743;28;96867;-64
2021/12/10 16:11:04;;;;;;;5.38;1.50;;;;;;;0.70;90.69;94652.50;10311171;28;97244;-65
2021/12/10 16:16:11;;;;;;;7.47;1.27;;;;;;;0.67;90.89;94641.66;10312463;28;97218;-65
2021/12/10 16:21:42;;;;;;;4.28;0.88;;;;;;;0.70;91.12;94647.38;10305315;28;96842;-65
2021/12/10 16:26:47;;;;;;;2.50;0.88;;;;;;;0.67;91.29;94677.66;10308931;28;97685;-65
2021/12/10 16:31:57;;;;;;;;;;;;;;;0.58;91.19;94653.50;10297152;28;97580;-65
2021/12/10 16:37:04;;;;;;;7.10;1.80;;;;;;;0.59;91.23;94693.69;10298549;28;98556;-65
2021/12/10 16:42:10;;;;;;;3.00;0.95;;;;;;;0.59;90.95;94701.41;10295137;28;98659;-65
2021/12/10 16:47:15;;;;;;;;;;;;;;;0.65;91.17;94715.50;10296830;28;97699;-65
2021/12/10 16:52:23;;;;;;;5.10;1.70;;;;;;;0.69;91.54;94722.03;10307689;28;96847;-65
2021/12/10 16:57:47;;;;;;;5.70;1.75;;;;;;;0.69;91.57;94733.13;10295092;28;97072;-64
2021/12/10 17:02:54;;;;;;;6.37;1.60;;;;;;;0.72;91.27;94732.91;10300417;28;98993;-64
2021/12/10 17:08:01;;;;;;;5.78;2.70;;;;;;;0.70;90.07;94737.31;10292253;28;97882;-64
2021/12/10 17:13:09;;;;;;;4.07;1.85;;;;;;;0.69;90.68;94756.28;10298484;28;97703;-65
2021/12/10 17:18:18;;;;;;;4.82;1.60;;;;;;;0.66;91.16;94743.66;10299277;28;96749;-65
2021/12/10 17:23:23;;;;;;;5.20;1.60;;;;;;;0.64;90.71;94755.81;10312928;28;96973;-65
2021/12/10 17:28:28;;;;;;;4.85;1.80;;;;;;;0.63;91.23;94782.44;10314762;28;97348;-65
2021/12/10 17:33:40;;;;;;;5.20;2.22;;;;;;;0.58;90.10;94771.72;10293964;28;98507;-65
2021/12/10 17:38:46;;;;;;;5.15;2.45;;;;;;;0.56;90.86;94791.59;10296063;28;97060;-65
2021/12/10 17:43:52;;;;;;;5.85;3.00;;;;;;;0.48;90.73;94794.78;10305310;28;97534;-65
2021/12/10 17:48:59;;;;;;;5.60;2.10;;;;;;;0.52;91.56;94818.47;10288967;28;96929;-65
2021/12/10 17:54:07;;;;;;;3.97;2.10;;;;;;;0.46;91.37;94830.03;10292988;28;100892;-65
2021/12/10 17:59:13;;;;;;;4.43;2.25;;;;;;;0.54;91.32;94826.88;10282550;28;96753;-65
2021/12/10 18:04:18;;;;;;;6.22;2.42;;;;;;;0.55;91.47;94846.47;10298355;28;97084;-65
2021/12/10 18:09:25;;;;;;;6.97;4.13;;;;;;;0.37;91.77;94841.03;10308717;28;97189;-65
2021/12/10 18:14:43;;;;;;;7.03;2.83;;;;;;;0.22;92.25;94853.34;10299167;28;97505;-65
2021/12/10 18:19:55;;;;;;;7.63;3.38;;;;;;;0.38;92.90;94869.19;10318925;28;99011;-65
2021/12/10 18:25:00;;;;;;;5.88;2.92;;;;;;;0.32;92.26;94889.38;10291301;28;97277;-65
2021/12/10 18:30:05;;;;;;;8.10;2.95;;;;;;;0.27;92.36;94907.72;10285967;28;101367;-65
2021/12/10 18:35:14;;;;;;;6.40;3.33;;;;;;;0.19;92.42;94933.19;10283116;28;96810;-64
2021/12/10 18:40:22;;;;;;;5.80;3.05;;;;;;;0.14;91.55;94943.81;10287662;28;96924;-65
2021/12/10 18:45:28;;;;;;;6.88;2.95;;;;;;;0.01;92.28;94974.72;10294926;28;96906;-65
2021/12/10 18:50:35;;;;;;;6.38;3.03;;;;;;;-0.17;91.83;94976.09;10310977;28;96795;-64
2021/12/10 18:55:42;;;;;;;4.28;2.58;;;;;;;-0.27;92.26;94973.38;10287096;28;96963;-65
2021/12/10 19:00:49;;;;;;;7.80;2.45;;;;;;;-0.35;92.74;94979.06;10305918;28;97038;-65
2021/12/10 19:06:01;;;;;;;6.15;2.70;;;;;;;-0.35;92.18;94993.66;10306625;28;96769;-65
2021/12/10 19:11:08;;;;;;;6.18;3.03;;;;;;;-0.31;92.67;95007.09;10305642;28;96985;-64
2021/12/10 19:16:15;;;;;;;9.95;4.38;;;;;;;-0.45;92.77;95016.59;10300151;28;96804;-65
2021/12/10 19:21:24;;;;;;;6.90;4.15;;;;;;;-0.39;92.76;95023.84;10306737;28;97213;-64
2021/12/10 19:26:28;;;;;;;10.38;5.57;;;;;;;-0.50;92.79;95028.13;10286674;28;99080;-65
2021/12/10 19:31:36;;;;;;;5.60;3.33;;;;;;;-0.51;92.29;95017.06;10287477;28;97925;-64
2021/12/10 19:36:45;;;;;;;8.23;3.50;;;;;;;-0.57;92.19;95012.34;10286860;28;98199;-65
2021/12/10 19:41:54;;;;;;;8.65;4.80;;;;;;;-0.68;92.51;95030.22;10293204;28;96904;-65
2021/12/10 19:47:02;;;;;;;6.65;2.80;;;;;;;-0.74;93.19;95044.31;10288815;28;96992;-65
2021/12/10 19:52:11;;;;;;;12.98;4.70;;;;;;;-0.60;93.65;95076.69;10291962;28;97206;-65
2021/12/10 19:57:19;;;;;;;11.25;6.40;;;;;;;-0.59;93.79;95083.47;10291269;28;98620;-65
2021/12/10 20:02:25;;;;;;;9.98;4.80;;;;;;;-0.64;93.67;95082.97;10293098;28;101091;-65
2021/12/10 20:07:34;;;;;;;5.22;3.40;;;;;;;-0.65;93.51;95099.28;10323384;28;97413;-64
2021/12/10 20:12:41;;;;;;;6.43;3.97;;;;;;;-0.77;94.06;95095.81;10301103;28;98389;-65
2021/12/10 20:17:51;;;;;;;5.82;4.13;;;;;;;-0.76;93.81;95103.41;10282857;28;98956;-65
2021/12/10 20:23:01;;;;;;;7.05;4.50;;;;;;;-0.73;94.24;95105.75;10288820;28;97567;-65
2021/12/10 20:28:09;;;;;;;6.38;4.70;;;;;;;-0.76;94.01;95120.53;10292781;28;97448;-65
2021/12/10 20:33:18;;;;;;;9.27;5.90;;;;;;;-0.66;93.73;95124.13;10294027;28;97136;-65
2021/12/10 20:38:30;;;;;;;10.05;5.70;;;;;;;-0.66;94.09;95151.50;10286115;28;97620;-65
2021/12/10 20:43:39;;;;;;;7.95;5.47;;;;;;;-0.72;94.20;95166.41;10317395;28;96722;-64
2021/12/10 20:48:47;;;;;;;8.98;5.20;;;;;;;-0.68;94.11;95161.03;10308760;28;97624;-65
2021/12/10 20:53:54;;;;;;;10.25;6.78;;;;;;;-0.68;94.34;95171.28;10297853;28;96771;-65
2021/12/10 20:59:08;;;;;;;12.75;7.28;;;;;;;-0.71;94.38;95177.47;10293211;28;97523;-64
2021/12/10 21:04:15;;;;;;;15.50;8.43;;;;;;;-0.59;94.34;95191.19;10299533;28;97207;-65
2021/12/10 21:09:23;;;;;;;8.75;6.03;;;;;;;-0.58;94.20;95208.22;10315443;28;97039;-65
2021/12/10 21:14:30;;;;;;;8.48;5.13;;;;;;;-0.55;93.77;95215.72;10291444;28;96911;-65
2021/12/10 21:19:37;;;;;;;6.70;4.40;;;;;;;-0.57;93.97;95220.13;10292863;28;97492;-64
2021/12/10 21:24:47;;;;;;;11.63;5.93;;;;;;;-0.56;93.62;95237.19;10308418;28;96882;-64
2021/12/10 21:29:54;;;;;;;9.15;4.30;;;;;;;-0.67;93.40;95230.19;10294620;28;97102;-64
2021/12/10 21:35:05;;;;;;;6.05;4.43;;;;;;;-0.57;94.10;95235.53;10309311;28;102002;-65
2021/12/10 21:40:17;;;;;;;9.00;4.30;;;;;;;-0.47;93.96;95240.84;10303687;28;96885;-65
2021/12/10 21:45:24;;;;;;;9.18;5.05;;;;;;;-0.46;93.64;95233.03;10298354;28;96965;-65
2021/12/10 21:50:30;;;;;;;9.60;5.47;;;;;;;-0.49;93.44;95228.13;10294918;28;96898;-65
2021/12/10 21:55:39;;;;;;;10.00;6.10;;;;;;;-0.54;93.38;95260.97;10308789;28;96789;-65
2021/12/10 22:00:46;;;;;;;11.90;5.35;;;;;;;-0.64;93.50;95270.22;10319171;28;96947;-65
2021/12/10 22:05:54;;;;;;;13.60;6.82;;;;;;;-0.61;93.76;95291.34;10298803;28;97579;-65
2021/12/10 22:11:06;;;;;;;10.77;6.25;;;;;;;-0.57;93.63;95290.19;10305490;28;97826;-65
2021/12/10 22:16:13;;;;;;;10.80;5.95;;;;;;;-0.61;93.25;95295.66;10320969;28;96961;-65
2021/12/10 22:21:20;;;;;;;11.80;5.97;;;;;;;-0.53;93.15;95313.91;10314435;28;98590;-65
2021/12/10 22:26:24;;;;;;;9.20;5.18;;;;;;;-0.46;93.57;95314.31;10314419;28;96887;-65
2021/12/10 22:31:31;;;;;;;10.52;5.88;;;;;;;-0.36;94.04;95321.28;10325471;28;98882;-65
2021/12/10 22:36:46;;;;;;;9.25;5.68;;;;;;;-0.34;93.37;95324.59;10314282;28;97049;-65
2021/12/10 22:41:53;;;;;;;12.90;7.55;;;;;;;-0.49;92.99;95347.88;10307376;28;97914;-64
2021/12/10 22:46:59;;;;;;;7.32;4.65;;;;;;;-0.55;93.31;95356.81;10289915;28;104208;-65
2021/12/10 22:52:06;;;;;;;8.70;5.05;;;;;;;-0.50;93.39;95359.88;10313562;28;97989;-65
2021/12/10 22:57:13;;;;;;;12.48;6.57;;;;;;;-0.52;92.87;95366.88;10311754;28;97360;-65
2021/12/10 23:02:18;;;;;;;16.63;9.27;;;;;;;-0.60;92.93;95387.06;10296699;28;96777;-65
2021/12/10 23:07:37;;;;;;;12.43;8.00;;;;;;;-0.60;92.66;95374.25;10317608;28;104342;-65
2021/12/10 23:12:46;;;;;;;11.80;7.20;;;;;;;-0.65;92.47;95392.53;10303530;28;97974;-65
2021/12/10 23:17:55;;;;;;;15.00;6.75;;;;;;;-0.74;92.25;95391.34;10292691;28;96986;-64
2021/12/10 23:22:58;;;;;;;12.50;6.22;;;;;;;-0.76;92.50;95385.50;10298396;28;100097;-64
2021/12/10 23:28:08;;;;;;;10.70;5.25;;;;;;;-0.80;92.53;95389.19;10284146;28;98536;-65
2021/12/10 23:33:15;;;;;;;9.13;4.35;;;;;;;-0.82;92.86;95393.59;10292281;28;98142;-65
2021/12/10 23:38:23;;;;;;;16.92;8.27;;;;;;;-0.93;92.75;95414.81;10313794;28;96883;-65
2021/12/10 23:43:42;;;;;;;13.57;6.88;;;;;;;-0.93;93.12;95435.31;10286798;28;97995;-65
2021/12/10 23:48:48;;;;;;;12.85;6.68;;;;;;;-0.76;93.82;95439.34;10291492;28;97888;-64
2021/12/10 23:53:52;;;;;;;9.77;6.38;;;;;;;-0.65;94.16;95442.97;10297671;28;100467;-65